Time;durP1;ratioP1;P1;durP2;ratioP2;P2;SDS_P1;SDS_P2;PMS_P1;PMS_P2;Temp;Humidity;BMP_temperature;BMP_pressure;BME280_temperature;BME280_humidity;BME280_pressure;Samples;Min_cycle;Max_cycle;Signal;HPM_P1;HPM_P2
2023/08/14 00:00:48;;;;;;;9.13;6.25;;;16.70;99.90;;;;;;4993245;28;20047;-64
2023/08/14 00:03:14;;;;;;;8.85;6.43;;;16.70;99.90;;;;;;4993187;28;20118;-65
2023/08/14 00:05:42;;;;;;;8.40;5.90;;;16.70;99.90;;;;;;4993170;28;20046;-64
2023/08/14 00:08:08;;;;;;;6.88;6.05;;;16.60;99.90;;;;;;4993246;28;20046;-65
2023/08/14 00:10:35;;;;;;;6.97;5.70;;;16.60;99.90;;;;;;4993152;28;20391;-64
2023/08/14 00:13:01;;;;;;;8.10;6.22;;;16.70;99.90;;;;;;4992309;28;20091;-64
2023/08/14 00:15:27;;;;;;;7.07;6.38;;;16.70;99.90;;;;;;4993392;28;20352;-64
2023/08/14 00:17:54;;;;;;;8.23;6.43;;;16.60;99.90;;;;;;4993427;28;20117;-64
2023/08/14 00:20:20;;;;;;;7.88;5.95;;;16.60;99.90;;;;;;4992681;28;20402;-65
2023/08/14 00:22:46;;;;;;;8.68;6.18;;;16.70;99.90;;;;;;4992824;28;20065;-65
2023/08/14 00:25:12;;;;;;;8.27;5.97;;;16.60;99.90;;;;;;4993246;28;20051;-64
2023/08/14 00:27:39;;;;;;;8.88;5.88;;;16.60;99.90;;;;;;4975624;28;20053;-65
2023/08/14 00:30:06;;;;;;;6.70;5.68;;;16.50;99.90;;;;;;4993059;28;20453;-65
2023/08/14 00:32:33;;;;;;;8.02;6.10;;;16.50;99.90;;;;;;4991721;28;20059;-66
2023/08/14 00:34:59;;;;;;;8.05;5.70;;;16.60;99.90;;;;;;4992908;28;20109;-64
2023/08/14 00:37:43;;;;;;;7.07;6.25;;;16.40;99.90;;;;;;4992882;28;20050;-64
2023/08/14 00:40:10;;;;;;;8.02;5.60;;;16.50;99.90;;;;;;4992594;28;20411;-65
2023/08/14 00:42:42;;;;;;;7.47;5.85;;;16.50;99.90;;;;;;4992824;28;20054;-65
2023/08/14 00:45:09;;;;;;;;;;;16.40;99.90;;;;;;5004913;28;20069;-65
2023/08/14 00:47:36;;;;;;;7.40;5.38;;;16.40;99.90;;;;;;5012250;28;19983;-65
2023/08/14 00:50:04;;;;;;;8.70;5.70;;;16.30;99.90;;;;;;5011117;28;20371;-64
2023/08/14 00:52:35;;;;;;;6.93;5.38;;;16.40;99.90;;;;;;5012507;28;20129;-65
2023/08/14 00:55:03;;;;;;;7.88;6.05;;;16.40;99.90;;;;;;5012536;28;20480;-65
2023/08/14 00:57:30;;;;;;;10.23;5.70;;;16.40;99.90;;;;;;4995079;28;20050;-65
2023/08/14 00:59:58;;;;;;;8.07;5.57;;;16.30;99.90;;;;;;5011382;28;20420;-66
2023/08/14 01:02:24;;;;;;;5.97;5.28;;;16.30;99.90;;;;;;4994590;28;20045;-65
2023/08/14 01:04:51;;;;;;;6.50;5.15;;;16.30;99.90;;;;;;5012341;28;20054;-64
2023/08/14 01:07:17;;;;;;;6.47;5.30;;;16.30;99.90;;;;;;4994002;28;20467;-66
2023/08/14 01:10:16;;;;;;;6.88;5.85;;;16.30;99.90;;;;;;4978537;28;20061;-64
2023/08/14 01:13:06;;;;;;;7.45;5.47;;;16.30;99.90;;;;;;5011767;28;20046;-65
2023/08/14 01:15:55;;;;;;;8.25;6.22;;;16.20;99.90;;;;;;4989734;28;20129;-66
2023/08/14 01:18:22;;;;;;;8.80;5.88;;;16.30;99.90;;;;;;5011917;28;20046;-64
2023/08/14 01:21:11;;;;;;;7.40;5.85;;;16.20;99.90;;;;;;5011938;28;20451;-65
2023/08/14 01:24:08;;;;;;;6.80;5.82;;;16.20;99.90;;;;;;5011862;28;20046;-66
2023/08/14 01:26:35;;;;;;;6.95;6.22;;;16.20;99.90;;;;;;5012249;28;20052;-64
2023/08/14 01:29:01;;;;;;;8.40;6.05;;;16.10;99.90;;;;;;5012372;28;20042;-64
2023/08/14 01:31:27;;;;;;;6.93;6.10;;;16.30;99.90;;;;;;5012436;28;20046;-65
2023/08/14 01:33:54;;;;;;;7.53;6.25;;;16.30;99.90;;;;;;5011733;28;20069;-65
2023/08/14 01:36:36;;;;;;;7.55;5.75;;;16.20;99.90;;;;;;4994516;28;20054;-63
2023/08/14 01:39:08;;;;;;;9.35;6.05;;;16.20;99.90;;;;;;4994596;28;20050;-65
2023/08/14 01:41:43;;;;;;;7.22;5.90;;;16.20;99.90;;;;;;5012143;28;20090;-64
2023/08/14 01:44:14;;;;;;;7.00;5.60;;;16.20;99.90;;;;;;5007351;28;20405;-64
2023/08/14 01:46:42;;;;;;;6.85;6.03;;;16.20;99.90;;;;;;4992316;28;20046;-64
2023/08/14 01:49:13;;;;;;;9.75;6.57;;;16.20;99.90;;;;;;4974415;28;20057;-64
2023/08/14 01:51:40;;;;;;;8.05;6.70;;;16.20;99.90;;;;;;4974591;28;20065;-64
2023/08/14 01:54:06;;;;;;;9.55;6.72;;;16.10;99.90;;;;;;4992128;28;20055;-64
2023/08/14 01:56:33;;;;;;;8.20;6.47;;;16.00;99.90;;;;;;4991865;28;20491;-65
2023/08/14 01:58:59;;;;;;;9.20;6.70;;;16.00;99.90;;;;;;4973541;28;20069;-64
2023/08/14 02:01:25;;;;;;;10.43;6.78;;;16.00;99.90;;;;;;4991990;28;20447;-64
2023/08/14 02:03:51;;;;;;;10.40;6.80;;;16.00;99.90;;;;;;4991908;28;20046;-64
2023/08/14 02:06:17;;;;;;;9.85;6.38;;;16.00;99.90;;;;;;4991084;28;20050;-65
2023/08/14 02:08:44;;;;;;;8.77;6.82;;;15.90;99.90;;;;;;4973752;28;20054;-65
2023/08/14 02:11:10;;;;;;;11.05;6.78;;;15.90;99.90;;;;;;4994046;28;20046;-64
2023/08/14 02:13:36;;;;;;;7.25;6.35;;;15.80;99.90;;;;;;4995240;28;20046;-64
2023/08/14 02:16:03;;;;;;;8.45;7.10;;;15.70;99.90;;;;;;4995761;28;20058;-64
2023/08/14 02:18:29;;;;;;;10.20;7.90;;;15.80;99.90;;;;;;4978622;28;20113;-64
2023/08/14 02:20:56;;;;;;;8.20;7.25;;;15.70;99.90;;;;;;4995674;28;20058;-64
2023/08/14 02:23:22;;;;;;;10.48;7.10;;;15.70;99.90;;;;;;4995064;28;20054;-64
2023/08/14 02:25:48;;;;;;;11.50;7.90;;;15.60;99.90;;;;;;4978335;28;20057;-65
2023/08/14 02:28:14;;;;;;;8.23;7.40;;;15.70;99.90;;;;;;4995068;28;20169;-65
2023/08/14 02:30:42;;;;;;;10.32;8.05;;;15.70;99.90;;;;;;4962080;28;20054;-65
2023/08/14 02:33:09;;;;;;;14.00;7.95;;;15.60;99.90;;;;;;4994830;28;20443;-64
2023/08/14 02:35:36;;;;;;;9.57;7.50;;;15.60;99.90;;;;;;4994798;28;20359;-64
2023/08/14 02:38:05;;;;;;;11.65;7.88;;;15.60;99.90;;;;;;4995318;28;20073;-64
2023/08/14 02:40:31;;;;;;;11.55;8.10;;;15.60;99.90;;;;;;4995366;28;20054;-65
2023/08/14 02:43:00;;;;;;;12.68;7.68;;;15.50;99.90;;;;;;4995100;28;20050;-64
2023/08/14 02:45:26;;;;;;;11.75;8.68;;;15.60;99.90;;;;;;4994902;28;20054;-64
2023/08/14 02:47:59;;;;;;;10.88;8.27;;;15.60;99.90;;;;;;4995140;28;20173;-64
2023/08/14 02:50:25;;;;;;;10.95;8.20;;;15.50;99.90;;;;;;4994796;28;20058;-64
2023/08/14 02:52:52;;;;;;;12.85;8.15;;;15.50;99.90;;;;;;4995000;28;20465;-64
2023/08/14 02:55:21;;;;;;;12.95;9.35;;;15.40;99.90;;;;;;4961629;28;20046;-64
2023/08/14 02:57:47;;;;;;;9.95;8.52;;;15.50;99.90;;;;;;4995249;28;20241;-64
2023/08/14 03:00:14;;;;;;;10.65;8.25;;;15.40;99.90;;;;;;4994688;28;20487;-65
2023/08/14 03:02:40;;;;;;;13.18;8.55;;;15.40;99.90;;;;;;5010160;28;20042;-65
2023/08/14 03:05:08;;;;;;;10.18;8.75;;;15.40;99.90;;;;;;4987670;28;20128;-64
2023/08/14 03:07:34;;;;;;;12.10;8.32;;;15.40;99.90;;;;;;5008680;28;20045;-65
2023/08/14 03:10:02;;;;;;;11.35;9.25;;;15.30;99.90;;;;;;4986166;28;20050;-64
2023/08/14 03:12:28;;;;;;;12.18;8.88;;;15.30;99.90;;;;;;4995283;28;20129;-64
2023/08/14 03:14:54;;;;;;;12.90;8.70;;;15.20;99.90;;;;;;4995019;28;20438;-64
2023/08/14 03:17:21;;;;;;;11.18;8.68;;;15.30;99.90;;;;;;4994586;28;20046;-64
2023/08/14 03:19:47;;;;;;;9.50;8.43;;;15.30;99.90;;;;;;4996749;28;20050;-64
2023/08/14 03:22:13;;;;;;;11.88;9.02;;;15.10;99.90;;;;;;5013023;28;20270;-64
2023/08/14 03:24:39;;;;;;;11.52;8.38;;;15.20;99.90;;;;;;4991110;28;20076;-65
2023/08/14 03:27:05;;;;;;;13.02;9.02;;;15.10;99.90;;;;;;4977301;28;20042;-64
2023/08/14 03:29:32;;;;;;;13.32;9.10;;;15.20;99.90;;;;;;4994387;28;20046;-65
2023/08/14 03:31:58;;;;;;;11.07;9.40;;;15.20;99.90;;;;;;4977597;28;20393;-64
2023/08/14 03:34:24;;;;;;;12.73;9.15;;;15.20;99.90;;;;;;4994390;28;20112;-64
2023/08/14 03:36:50;;;;;;;11.65;9.15;;;15.10;99.90;;;;;;4994928;28;20046;-64
2023/08/14 03:39:17;;;;;;;12.07;8.98;;;15.10;99.90;;;;;;4977137;28;20042;-64
2023/08/14 03:41:44;;;;;;;12.45;9.55;;;15.10;99.90;;;;;;4993966;28;20355;-64
2023/08/14 03:44:10;;;;;;;15.02;9.07;;;15.10;99.90;;;;;;4998264;28;20073;-64
2023/08/14 03:46:36;;;;;;;12.52;9.98;;;15.00;99.90;;;;;;5014388;28;20050;-64
2023/08/14 03:49:04;;;;;;;13.73;9.43;;;15.10;99.90;;;;;;5014091;28;20076;-65
2023/08/14 03:51:30;;;;;;;12.88;10.30;;;15.00;99.90;;;;;;5029264;28;20058;-64
2023/08/14 03:53:56;;;;;;;13.07;9.80;;;15.00;99.90;;;;;;4998183;28;20042;-64
2023/08/14 03:56:23;;;;;;;13.25;10.55;;;15.00;99.90;;;;;;5005762;28;20042;-63
2023/08/14 03:58:49;;;;;;;12.68;8.93;;;15.00;99.90;;;;;;5010251;28;20174;-63
2023/08/14 04:01:22;;;;;;;13.35;9.73;;;15.00;99.90;;;;;;4964161;28;20054;-65
2023/08/14 04:03:49;;;;;;;12.63;9.65;;;14.90;99.90;;;;;;5012112;28;20501;-63
2023/08/14 04:06:15;;;;;;;14.77;9.73;;;14.90;99.90;;;;;;4996292;28;20054;-64
2023/08/14 04:08:43;;;;;;;13.93;10.18;;;14.90;99.90;;;;;;4999461;28;20059;-65
2023/08/14 04:11:09;;;;;;;14.90;9.32;;;15.00;99.90;;;;;;5003300;28;20064;-64
2023/08/14 04:13:36;;;;;;;13.38;10.00;;;15.10;99.90;;;;;;5000010;28;20041;-64
2023/08/14 04:16:03;;;;;;;13.77;9.45;;;15.00;99.90;;;;;;5010876;28;20046;-64
2023/08/14 04:18:30;;;;;;;13.88;9.73;;;15.00;99.90;;;;;;5013068;28;20053;-64
2023/08/14 04:20:56;;;;;;;13.77;10.40;;;15.10;99.90;;;;;;4977375;28;20129;-63
2023/08/14 04:23:25;;;;;;;14.90;10.25;;;15.00;99.90;;;;;;4992732;28;20064;-64
2023/08/14 04:25:52;;;;;;;13.10;9.82;;;15.10;99.90;;;;;;4993727;28;20151;-64
2023/08/14 04:28:18;;;;;;;14.95;10.88;;;15.10;99.90;;;;;;4993266;28;20042;-64
2023/08/14 04:30:44;;;;;;;14.93;10.73;;;15.20;99.90;;;;;;4993268;28;20050;-63
2023/08/14 04:33:11;;;;;;;13.65;10.80;;;15.20;99.90;;;;;;4993427;28;20047;-64
2023/08/14 04:35:37;;;;;;;15.18;10.25;;;15.30;99.90;;;;;;4993340;28;20047;-65
2023/08/14 04:38:04;;;;;;;14.90;10.50;;;15.30;99.90;;;;;;4975806;28;20058;-65
2023/08/14 04:40:31;;;;;;;15.70;10.70;;;15.20;99.90;;;;;;4975345;28;20054;-63
2023/08/14 04:42:57;;;;;;;14.15;10.57;;;15.30;99.90;;;;;;4993070;28;20143;-63
2023/08/14 04:45:23;;;;;;;17.48;10.45;;;15.30;99.90;;;;;;4992979;28;20347;-64
2023/08/14 04:47:50;;;;;;;15.75;10.38;;;15.40;99.90;;;;;;4975619;28;20054;-64
2023/08/14 04:50:16;;;;;;;14.40;10.50;;;15.50;99.90;;;;;;4992456;28;20046;-63
2023/08/14 04:52:42;;;;;;;13.48;10.63;;;15.60;99.90;;;;;;4993112;28;20046;-63
2023/08/14 04:55:09;;;;;;;14.35;10.07;;;15.60;99.90;;;;;;4993427;28;20054;-64
2023/08/14 04:57:35;;;;;;;14.45;10.00;;;15.90;99.90;;;;;;4993122;28;20129;-65
2023/08/14 05:00:02;;;;;;;13.93;11.07;;;16.10;99.90;;;;;;4993100;28;20050;-64
2023/08/14 05:02:29;;;;;;;14.88;10.45;;;16.40;99.90;;;;;;4992460;28;20058;-64
2023/08/14 05:04:55;;;;;;;14.63;10.30;;;17.00;99.90;;;;;;4959459;28;20458;-64
2023/08/14 05:07:22;;;;;;;14.30;10.07;;;17.40;99.90;;;;;;4992908;28;20108;-64
2023/08/14 05:09:49;;;;;;;11.90;9.60;;;17.90;99.90;;;;;;4975073;28;20098;-64
2023/08/14 05:12:16;;;;;;;13.40;9.50;;;18.10;99.90;;;;;;4992464;28;20046;-64
2023/08/14 05:14:43;;;;;;;13.63;9.93;;;18.40;99.90;;;;;;4994739;28;20042;-63
2023/08/14 05:17:10;;;;;;;11.77;9.25;;;18.20;99.90;;;;;;5011249;28;20451;-64
2023/08/14 05:19:36;;;;;;;12.18;9.48;;;18.10;99.90;;;;;;4986105;28;20114;-65
2023/08/14 05:22:02;;;;;;;13.10;9.98;;;17.90;99.90;;;;;;4974644;28;20067;-64
2023/08/14 05:24:28;;;;;;;13.15;9.20;;;17.70;99.90;;;;;;4993364;28;20058;-64
2023/08/14 05:26:55;;;;;;;12.75;9.82;;;17.80;99.90;;;;;;4976395;28;20439;-64
2023/08/14 05:29:21;;;;;;;10.77;8.25;;;18.00;99.90;;;;;;4993757;28;20065;-64
2023/08/14 05:31:47;;;;;;;12.25;9.40;;;18.20;99.90;;;;;;4976709;28;20050;-63
2023/08/14 05:34:13;;;;;;;13.23;9.48;;;18.20;99.90;;;;;;4993524;28;20057;-64
2023/08/14 05:36:40;;;;;;;11.50;9.20;;;18.10;99.90;;;;;;4976069;28;20042;-63
2023/08/14 05:39:08;;;;;;;13.15;9.02;;;18.30;99.90;;;;;;4993550;28;20112;-63
2023/08/14 05:41:35;;;;;;;10.98;8.93;;;18.30;99.90;;;;;;4976436;28;20160;-62
2023/08/14 05:44:01;;;;;;;14.43;8.93;;;18.30;99.90;;;;;;4996080;28;20073;-62
2023/08/14 05:46:27;;;;;;;11.48;8.73;;;18.20;99.90;;;;;;5016009;28;20046;-63
2023/08/14 05:48:53;;;;;;;12.05;9.90;;;18.00;99.90;;;;;;5017038;28;20502;-63
2023/08/14 05:51:20;;;;;;;13.35;8.93;;;18.00;99.90;;;;;;4999596;28;20072;-62
2023/08/14 05:53:46;;;;;;;11.73;8.65;;;17.90;99.90;;;;;;4999684;28;20046;-62
2023/08/14 05:56:13;;;;;;;12.95;8.90;;;17.80;99.90;;;;;;4999784;28;20038;-62
2023/08/14 05:58:39;;;;;;;12.95;10.02;;;17.70;99.90;;;;;;5016526;28;20081;-63
2023/08/14 06:01:05;;;;;;;15.38;9.73;;;17.70;99.90;;;;;;5016071;28;20454;-63
2023/08/14 06:03:34;;;;;;;15.45;9.98;;;17.70;99.90;;;;;;5016512;28;20054;-64
2023/08/14 06:06:00;;;;;;;13.02;9.77;;;17.90;99.90;;;;;;4998494;28;20057;-63
2023/08/14 06:08:27;;;;;;;12.38;9.38;;;17.90;99.90;;;;;;4997545;28;20038;-63
2023/08/14 06:10:54;;;;;;;13.05;9.80;;;17.90;99.90;;;;;;5015552;28;20057;-63
2023/08/14 06:13:20;;;;;;;16.67;9.65;;;17.90;99.90;;;;;;4998204;28;20295;-62
2023/08/14 06:15:47;;;;;;;13.45;9.80;;;18.00;99.90;;;;;;4997235;28;20038;-61
2023/08/14 06:18:13;;;;;;;14.63;9.32;;;18.00;99.90;;;;;;4964722;28;20081;-63
2023/08/14 06:20:39;;;;;;;13.40;9.63;;;17.90;99.90;;;;;;5014330;28;20053;-63
2023/08/14 06:23:05;;;;;;;11.90;9.05;;;17.80;99.90;;;;;;5014812;28;20057;-63
2023/08/14 06:25:33;;;;;;;13.52;9.68;;;17.90;99.90;;;;;;5015212;28;20049;-63
2023/08/14 06:27:59;;;;;;;12.25;9.40;;;17.90;99.90;;;;;;4997832;28;20108;-63
2023/08/14 06:30:26;;;;;;;15.00;10.10;;;17.80;99.90;;;;;;5015576;28;20072;-63
2023/08/14 06:32:53;;;;;;;15.88;10.02;;;17.80;99.90;;;;;;4998359;28;20061;-63
2023/08/14 06:35:20;;;;;;;12.43;9.98;;;17.80;99.90;;;;;;5015315;28;20141;-63
2023/08/14 06:37:46;;;;;;;15.20;9.80;;;17.70;99.90;;;;;;5015243;28;20049;-64
2023/08/14 06:40:13;;;;;;;14.35;9.75;;;17.70;99.90;;;;;;5030300;28;20056;-62
2023/08/14 06:42:39;;;;;;;14.13;9.70;;;17.70;99.90;;;;;;5014998;28;20046;-62
2023/08/14 06:45:06;;;;;;;13.15;9.73;;;17.80;99.90;;;;;;5003138;28;20116;-62
2023/08/14 06:47:33;;;;;;;14.82;10.43;;;17.90;99.90;;;;;;4994976;28;20542;-63
2023/08/14 06:50:02;;;;;;;12.20;10.40;;;17.90;99.90;;;;;;4985484;28;20054;-63
2023/08/14 06:52:29;;;;;;;14.63;10.48;;;18.10;99.90;;;;;;4975549;28;20341;-64
2023/08/14 06:54:56;;;;;;;12.55;9.80;;;18.30;99.90;;;;;;4975038;28;20066;-63
2023/08/14 06:57:22;;;;;;;12.80;10.20;;;18.70;99.90;;;;;;4958333;28;20072;-64
2023/08/14 06:59:49;;;;;;;13.25;9.63;;;19.00;99.90;;;;;;4993485;28;20050;-63
2023/08/14 07:02:15;;;;;;;12.68;9.30;;;19.10;99.90;;;;;;4994617;28;20427;-63
2023/08/14 07:04:43;;;;;;;10.30;8.68;;;19.30;99.90;;;;;;4994738;28;20463;-63
2023/08/14 07:07:09;;;;;;;12.15;9.32;;;19.30;99.90;;;;;;4978071;28;20109;-64
2023/08/14 07:09:35;;;;;;;14.75;9.50;;;19.60;99.90;;;;;;4989148;28;20102;-63
2023/08/14 07:12:01;;;;;;;10.68;9.10;;;19.70;99.90;;;;;;4958490;28;20054;-62
2023/08/14 07:14:27;;;;;;;14.70;8.93;;;19.80;99.90;;;;;;4975626;28;20055;-63
2023/08/14 07:16:54;;;;;;;11.93;8.07;;;19.90;99.90;;;;;;4975372;28;20460;-63
2023/08/14 07:19:20;;;;;;;13.38;8.02;;;20.20;99.90;;;;;;4963612;28;20494;-62
2023/08/14 07:21:47;;;;;;;9.93;7.63;;;20.40;99.90;;;;;;4977441;28;20133;-63
2023/08/14 07:24:13;;;;;;;10.95;8.20;;;20.60;99.90;;;;;;4994864;28;20046;-63
2023/08/14 07:26:40;;;;;;;11.35;7.13;;;20.60;99.90;;;;;;4995088;28;20038;-63
2023/08/14 07:29:07;;;;;;;14.50;8.02;;;20.60;99.90;;;;;;4993891;28;20396;-63
2023/08/14 07:31:33;;;;;;;9.73;7.50;;;20.70;99.90;;;;;;4995405;28;20108;-63
2023/08/14 07:34:00;;;;;;;9.10;7.18;;;20.70;99.90;;;;;;4995019;28;20058;-63
2023/08/14 07:36:26;;;;;;;11.65;7.60;;;20.60;99.90;;;;;;4977073;28;20081;-63
2023/08/14 07:38:52;;;;;;;11.38;7.03;;;20.70;99.90;;;;;;4977009;28;20056;-63
2023/08/14 07:41:18;;;;;;;10.18;7.63;;;20.60;99.90;;;;;;4976970;28;20054;-64
2023/08/14 07:43:45;;;;;;;9.85;7.30;;;20.60;99.90;;;;;;4977687;28;20054;-63
2023/08/14 07:46:11;;;;;;;10.10;6.90;;;20.80;99.90;;;;;;4996512;28;20050;-63
2023/08/14 07:48:38;;;;;;;11.63;6.95;;;20.80;99.90;;;;;;4996222;28;20045;-64
2023/08/14 07:51:04;;;;;;;7.78;6.40;;;20.80;99.90;;;;;;4976600;28;20133;-63
2023/08/14 07:53:31;;;;;;;8.43;6.65;;;21.00;99.90;;;;;;4977029;28;20175;-63
2023/08/14 07:55:57;;;;;;;9.23;7.00;;;20.90;99.90;;;;;;5008956;28;20058;-62
2023/08/14 07:58:29;;;;;;;8.65;6.30;;;21.10;99.90;;;;;;4976472;28;20050;-63
2023/08/14 08:00:55;;;;;;;10.40;6.43;;;21.00;99.90;;;;;;5009896;28;20053;-64
2023/08/14 08:03:22;;;;;;;10.93;6.95;;;21.00;99.90;;;;;;5014030;28;20116;-63
2023/08/14 08:05:48;;;;;;;10.52;7.15;;;21.00;99.90;;;;;;5014658;28;20045;-63
2023/08/14 08:08:14;;;;;;;11.43;6.35;;;21.00;99.90;;;;;;5013074;28;20486;-64
2023/08/14 08:10:40;;;;;;;11.10;6.57;;;21.00;99.90;;;;;;5012937;28;20061;-62
2023/08/14 08:13:08;;;;;;;10.93;6.40;;;21.00;99.90;;;;;;5013429;28;20108;-63
2023/08/14 08:15:34;;;;;;;7.95;6.40;;;21.20;99.90;;;;;;5013368;28;20046;-63
2023/08/14 08:18:01;;;;;;;12.77;7.05;;;21.50;99.90;;;;;;5013511;28;20072;-63
2023/08/14 08:20:28;;;;;;;9.75;6.38;;;21.80;99.90;;;;;;5013111;28;20065;-62
2023/08/14 08:22:54;;;;;;;10.25;6.78;;;22.20;99.90;;;;;;4995514;28;20050;-64
2023/08/14 08:25:20;;;;;;;8.25;5.78;;;22.40;99.90;;;;;;5013365;28;20054;-64
2023/08/14 08:27:47;;;;;;;8.75;5.50;;;22.50;99.90;;;;;;5013014;28;20097;-63
2023/08/14 08:30:13;;;;;;;6.82;5.00;;;22.60;99.90;;;;;;4996277;28;20052;-62
2023/08/14 08:32:39;;;;;;;6.18;4.60;;;22.70;99.90;;;;;;5013551;28;20108;-63
2023/08/14 08:35:06;;;;;;;11.15;6.30;;;23.00;99.90;;;;;;5013333;28;20046;-63
2023/08/14 08:37:32;;;;;;;9.75;5.72;;;23.00;99.90;;;;;;5012441;28;20068;-62
2023/08/14 08:39:59;;;;;;;10.30;5.20;;;22.90;99.90;;;;;;5013148;28;20123;-62
2023/08/14 08:42:26;;;;;;;10.00;6.20;;;22.80;99.90;;;;;;4995295;28;20348;-63
2023/08/14 08:44:55;;;;;;;9.38;5.90;;;22.60;99.90;;;;;;5012599;28;20057;-63
2023/08/14 08:47:26;;;;;;;9.68;5.90;;;22.50;99.90;;;;;;5013077;28;20109;-62
2023/08/14 08:49:52;;;;;;;7.30;5.40;;;22.50;99.90;;;;;;4993766;28;20363;-62
2023/08/14 08:52:19;;;;;;;10.10;5.50;;;22.50;99.90;;;;;;5011909;28;20116;-63
2023/08/14 08:54:47;;;;;;;9.80;6.03;;;22.50;99.90;;;;;;5012905;28;20046;-62
2023/08/14 08:57:19;;;;;;;8.63;5.82;;;22.50;99.90;;;;;;5012322;28;20046;-61
2023/08/14 08:59:47;;;;;;;8.65;6.05;;;22.50;99.90;;;;;;4978698;28;20128;-62
2023/08/14 09:02:13;;;;;;;10.18;5.70;;;22.50;99.90;;;;;;5012332;28;20072;-62
2023/08/14 09:04:40;;;;;;;9.40;6.05;;;22.50;99.90;;;;;;5012092;28;20137;-62
2023/08/14 09:07:06;;;;;;;9.52;5.85;;;22.70;99.90;;;;;;5011893;28;20116;-62
2023/08/14 09:09:33;;;;;;;7.07;5.40;;;22.90;99.90;;;;;;5011218;28;20049;-62
2023/08/14 09:11:59;;;;;;;8.10;5.60;;;23.10;99.90;;;;;;5010940;28;20073;-63
2023/08/14 09:14:26;;;;;;;7.53;5.65;;;23.20;99.90;;;;;;5012276;28;20050;-62
2023/08/14 09:16:53;;;;;;;8.63;5.97;;;23.40;99.90;;;;;;5010896;28;20346;-63
2023/08/14 09:19:19;;;;;;;8.65;5.78;;;23.50;99.90;;;;;;5009491;28;20061;-63
2023/08/14 09:21:47;;;;;;;10.50;6.22;;;23.50;99.90;;;;;;5011404;28;20058;-63
2023/08/14 09:24:14;;;;;;;10.15;5.43;;;23.70;99.90;;;;;;5011354;28;20053;-62
2023/08/14 09:26:44;;;;;;;8.77;5.95;;;23.80;99.90;;;;;;5012045;28;20042;-62
2023/08/14 09:29:14;;;;;;;9.52;5.80;;;23.90;99.90;;;;;;5011760;28;20061;-64
2023/08/14 09:31:45;;;;;;;8.73;5.57;;;24.00;99.90;;;;;;5012506;28;20054;-62
2023/08/14 09:34:20;;;;;;;9.73;5.38;;;24.10;99.90;;;;;;4995009;28;20061;-63
2023/08/14 09:36:48;;;;;;;7.95;4.78;;;24.10;99.90;;;;;;5011754;28;20375;-62
2023/08/14 09:39:15;;;;;;;8.05;4.78;;;24.20;99.90;;;;;;5011726;28;20156;-63
2023/08/14 09:41:48;;;;;;;8.23;4.63;;;24.30;99.90;;;;;;5012329;28;20053;-62
2023/08/14 09:44:19;;;;;;;10.52;4.97;;;24.20;99.90;;;;;;4989764;28;20050;-63
2023/08/14 09:46:47;;;;;;;6.88;3.88;;;24.10;99.90;;;;;;4975652;28;20055;-62
2023/08/14 09:49:17;;;;;;;6.13;3.63;;;24.00;99.90;;;;;;4975405;28;20058;-63
2023/08/14 09:51:57;;;;;;;5.78;3.33;;;24.20;99.90;;;;;;4992062;28;20047;-64
2023/08/14 09:54:34;;;;;;;6.57;2.92;;;24.30;99.90;;;;;;4992524;28;20050;-62
2023/08/14 09:57:06;;;;;;;;;;;24.50;99.90;;;;;;4992193;28;20482;-62
2023/08/14 09:59:35;;;;;;;8.57;3.78;;;24.60;99.90;;;;;;4991280;28;19922;-63
2023/08/14 10:02:03;;;;;;;4.90;3.00;;;24.50;99.90;;;;;;4992267;28;20061;-63
2023/08/14 10:04:32;;;;;;;5.22;2.78;;;24.50;99.90;;;;;;4991812;28;20055;-63
2023/08/14 10:07:03;;;;;;;4.00;2.60;;;24.60;99.90;;;;;;4992315;28;20382;-62
2023/08/14 10:09:31;;;;;;;5.55;2.90;;;24.50;99.90;;;;;;4973991;28;20046;-62
2023/08/14 10:12:06;;;;;;;7.35;2.60;;;24.80;99.90;;;;;;4974255;28;20047;-62
2023/08/14 10:14:35;;;;;;;4.78;2.13;;;25.00;99.90;;;;;;4975164;28;20105;-63
2023/08/14 10:17:03;;;;;;;3.95;1.90;;;25.20;99.90;;;;;;4974698;28;20054;-63
2023/08/14 10:19:32;;;;;;;3.67;1.80;;;25.50;99.90;;;;;;4990841;28;20086;-62
2023/08/14 10:21:59;;;;;;;6.03;2.25;;;25.50;99.90;;;;;;4991608;28;20050;-63
2023/08/14 10:24:27;;;;;;;3.42;1.73;;;25.40;99.90;;;;;;4992067;28;20521;-62
2023/08/14 10:26:56;;;;;;;4.43;1.70;;;25.40;99.90;;;;;;4991401;28;20462;-62
2023/08/14 10:29:24;;;;;;;4.00;1.70;;;25.40;99.90;;;;;;4973453;28;20175;-62
2023/08/14 10:31:51;;;;;;;4.10;1.98;;;25.60;99.90;;;;;;4992877;28;20054;-62
2023/08/14 10:34:18;;;;;;;4.47;1.92;;;25.60;99.90;;;;;;4994723;28;20061;-63
2023/08/14 10:36:50;;;;;;;4.13;2.00;;;25.50;99.90;;;;;;4994532;28;20451;-62
2023/08/14 10:39:16;;;;;;;7.05;1.85;;;25.50;99.90;;;;;;4994974;28;20085;-62
2023/08/14 10:41:43;;;;;;;4.40;2.50;;;25.50;99.90;;;;;;4994761;28;20046;-63
2023/08/14 10:44:11;;;;;;;4.07;1.95;;;25.70;99.90;;;;;;4998586;28;20108;-63
2023/08/14 10:46:41;;;;;;;5.43;2.30;;;25.80;99.90;;;;;;5028769;28;20051;-62
2023/08/14 10:49:11;;;;;;;5.15;2.53;;;26.00;99.90;;;;;;5033766;28;20052;-62
2023/08/14 10:51:42;;;;;;;7.10;2.60;;;26.20;99.90;;;;;;5029978;28;20045;-64
2023/08/14 10:54:13;;;;;;;5.47;2.45;;;26.00;99.90;;;;;;5026416;28;20097;-62
2023/08/14 10:56:46;;;;;;;6.85;2.42;;;25.90;99.90;;;;;;5021334;28;20042;-62
2023/08/14 10:59:34;;;;;;;5.85;2.50;;;25.80;99.90;;;;;;5021953;28;20078;-62
2023/08/14 11:02:09;;;;;;;4.10;2.40;;;26.10;99.90;;;;;;5006848;28;20049;-62
2023/08/14 11:05:00;;;;;;;4.60;2.20;;;25.90;99.90;;;;;;5013957;28;20053;-63
2023/08/14 11:07:28;;;;;;;7.75;2.50;;;25.80;99.90;;;;;;5013275;28;20061;-63
2023/08/14 11:09:58;;;;;;;6.18;2.67;;;25.80;99.90;;;;;;5012776;28;20049;-62
2023/08/14 11:12:26;;;;;;;6.60;2.28;;;25.90;99.90;;;;;;5013878;28;20097;-63
2023/08/14 11:14:55;;;;;;;5.13;2.25;;;26.10;99.90;;;;;;4996140;28;20469;-62
2023/08/14 11:17:23;;;;;;;8.30;2.80;;;26.30;99.90;;;;;;5013474;28;20470;-62
2023/08/14 11:19:50;;;;;;;5.32;2.90;;;26.50;99.90;;;;;;5013620;28;20054;-63
2023/08/14 11:22:16;;;;;;;7.50;2.70;;;26.50;99.90;;;;;;4996234;28;20108;-63
2023/08/14 11:24:42;;;;;;;5.30;2.50;;;26.60;99.90;;;;;;5013488;28;20422;-64
2023/08/14 11:27:08;;;;;;;5.30;2.97;;;26.60;99.90;;;;;;4995457;28;20050;-63
2023/08/14 11:29:36;;;;;;;5.95;2.60;;;26.60;99.90;;;;;;5013519;28;20042;-63
2023/08/14 11:32:02;;;;;;;6.47;2.47;;;26.60;99.90;;;;;;4996901;28;20046;-63
2023/08/14 11:34:34;;;;;;;6.93;3.13;;;26.70;99.90;;;;;;4995825;28;20053;-63
2023/08/14 11:37:07;;;;;;;6.40;2.90;;;26.80;99.90;;;;;;5013605;28;20111;-63
2023/08/14 11:39:33;;;;;;;4.03;2.80;;;26.90;99.90;;;;;;5013145;28;20063;-63
2023/08/14 11:42:01;;;;;;;6.40;2.90;;;26.90;99.90;;;;;;5012814;28;20046;-64
2023/08/14 11:44:28;;;;;;;6.35;2.92;;;26.80;99.90;;;;;;5004884;28;20144;-62
2023/08/14 11:46:56;;;;;;;7.20;3.00;;;27.00;99.90;;;;;;4993574;28;20054;-62
2023/08/14 11:49:23;;;;;;;7.25;3.33;;;27.10;99.90;;;;;;4991269;28;20050;-63
2023/08/14 11:51:49;;;;;;;7.60;2.90;;;27.00;99.90;;;;;;4993385;28;20077;-62
2023/08/14 11:54:18;;;;;;;7.55;3.10;;;27.00;99.90;;;;;;4993309;28;20050;-63
2023/08/14 11:56:46;;;;;;;5.68;3.58;;;26.90;99.90;;;;;;4993478;28;20057;-63
2023/08/14 11:59:13;;;;;;;7.07;3.10;;;27.00;99.90;;;;;;4992456;28;20050;-63
2023/08/14 12:01:43;;;;;;;5.75;3.55;;;27.10;99.90;;;;;;4992711;28;20064;-62
2023/08/14 12:04:10;;;;;;;7.40;3.17;;;27.20;99.90;;;;;;4993118;28;20054;-64
2023/08/14 12:06:37;;;;;;;5.40;3.20;;;27.20;99.90;;;;;;4992955;28;20055;-63
2023/08/14 12:09:07;;;;;;;6.30;3.58;;;27.20;99.90;;;;;;4992901;28;20057;-63
2023/08/14 12:11:34;;;;;;;7.93;3.72;;;27.20;99.90;;;;;;4993126;28;20054;-63
2023/08/14 12:14:04;;;;;;;5.28;3.65;;;27.20;99.90;;;;;;4993251;28;20137;-64
2023/08/14 12:16:30;;;;;;;6.28;3.60;;;27.30;99.90;;;;;;4993249;28;20116;-63
2023/08/14 12:18:57;;;;;;;7.13;4.05;;;27.30;99.90;;;;;;4993037;28;20060;-63
2023/08/14 12:21:27;;;;;;;6.78;3.72;;;27.20;99.90;;;;;;4992078;28;20069;-63
2023/08/14 12:23:54;;;;;;;6.25;3.67;;;27.20;99.90;;;;;;4975403;28;20060;-63
2023/08/14 12:26:21;;;;;;;6.22;3.50;;;27.10;99.90;;;;;;4992504;28;20374;-63
2023/08/14 12:28:47;;;;;;;6.93;4.20;;;27.20;99.90;;;;;;4992741;28;20100;-63
2023/08/14 12:31:14;;;;;;;6.00;3.55;;;27.20;99.90;;;;;;4992706;28;20047;-62
2023/08/14 12:33:43;;;;;;;5.53;3.67;;;27.30;99.90;;;;;;4992891;28;20046;-63
2023/08/14 12:36:10;;;;;;;6.57;3.80;;;27.40;99.90;;;;;;4992669;28;20379;-63
2023/08/14 12:38:37;;;;;;;6.78;4.00;;;27.40;99.90;;;;;;4992770;28;20481;-62
2023/08/14 12:41:04;;;;;;;7.57;4.30;;;27.40;99.90;;;;;;4992509;28;20057;-63
2023/08/14 12:43:31;;;;;;;5.63;3.95;;;27.40;99.90;;;;;;5007953;28;20427;-63